Time;durP1;ratioP1;P1;durP2;ratioP2;P2;SDS_P1;SDS_P2;PMS_P1;PMS_P2;Temp;Humidity;BMP_temperature;BMP_pressure;BME280_temperature;BME280_humidity;BME280_pressure;Samples;Min_cycle;Max_cycle;Signal;HPM_P1;HPM_P2
2023/03/13 00:00:24;;;;;;;11.67;7.00;;;;;;;4.21;66.06;95105.50;5051933;28;20441;-73
2023/03/13 00:02:51;;;;;;;10.40;8.03;;;;;;;4.21;66.72;95103.75;5033225;28;20445;-73
2023/03/13 00:05:18;;;;;;;17.07;8.00;;;;;;;4.17;66.15;95098.81;5051626;28;20442;-73
2023/03/13 00:07:46;;;;;;;9.50;7.47;;;;;;;4.10;66.08;95093.16;5051607;28;20449;-73
2023/03/13 00:10:13;;;;;;;14.17;6.53;;;;;;;4.09;66.92;95104.47;5051810;28;20456;-71
2023/03/13 00:12:39;;;;;;;8.30;6.10;;;;;;;4.02;67.10;95096.16;5051880;28;20456;-73
2023/03/13 00:15:07;;;;;;;10.83;6.83;;;;;;;3.99;67.90;95095.50;5052218;28;20444;-74
2023/03/13 00:17:34;;;;;;;9.97;7.00;;;;;;;3.97;67.48;95095.56;5055881;28;20449;-73
2023/03/13 00:20:01;;;;;;;10.93;7.03;;;;;;;3.93;67.58;95101.88;5020260;28;20849;-74
2023/03/13 00:22:28;;;;;;;8.67;7.00;;;;;;;3.93;67.32;95103.63;5055956;28;20445;-72
2023/03/13 00:24:57;;;;;;;9.80;6.60;;;;;;;3.91;67.26;95111.50;5055984;28;20441;-72
2023/03/13 00:27:24;;;;;;;11.13;5.77;;;;;;;3.87;67.93;95106.56;5055903;28;20460;-74
2023/03/13 00:29:51;;;;;;;8.90;6.33;;;;;;;3.88;67.67;95116.88;5055541;28;20453;-73
2023/03/13 00:32:17;;;;;;;6.23;5.47;;;;;;;3.88;67.29;95113.44;5055786;28;20478;-73
2023/03/13 00:34:44;;;;;;;6.90;5.53;;;;;;;3.87;67.68;95114.34;5055291;28;21045;-74
2023/03/13 00:37:11;;;;;;;10.90;6.67;;;;;;;3.89;67.94;95120.28;5020359;28;20803;-73
2023/03/13 00:39:38;;;;;;;6.97;6.20;;;;;;;3.86;67.87;95118.72;5036458;28;20502;-73
2023/03/13 00:42:06;;;;;;;7.90;5.90;;;;;;;3.90;67.85;95116.78;5055365;28;20856;-73
2023/03/13 00:44:33;;;;;;;11.67;7.20;;;;;;;3.87;67.88;95119.53;5020553;28;20862;-74
2023/03/13 00:47:00;;;;;;;9.20;6.40;;;;;;;3.85;67.97;95113.59;5055044;28;20956;-73
2023/03/13 00:49:27;;;;;;;12.17;6.30;;;;;;;3.84;68.02;95122.31;5055419;28;20452;-73
2023/03/13 00:51:53;;;;;;;7.10;5.93;;;;;;;3.80;67.97;95113.84;5055091;28;20441;-73
2023/03/13 00:54:20;;;;;;;8.50;6.00;;;;;;;3.70;68.32;95116.09;5055458;28;20491;-74
2023/03/13 00:56:47;;;;;;;7.57;6.47;;;;;;;3.67;68.42;95120.63;5055113;28;20441;-73
2023/03/13 00:59:15;;;;;;;9.63;6.47;;;;;;;3.62;68.79;95110.50;5055026;28;20821;-73
2023/03/13 01:01:42;;;;;;;10.23;6.20;;;;;;;3.63;68.25;95119.94;5054841;28;20487;-74
2023/03/13 01:04:11;;;;;;;8.30;6.70;;;;;;;3.64;68.98;95118.19;5055245;28;20472;-73
2023/03/13 01:06:41;;;;;;;8.20;5.93;;;;;;;3.62;68.48;95120.03;5055119;28;20989;-72
2023/03/13 01:09:10;;;;;;;7.80;6.53;;;;;;;3.60;68.38;95124.47;5055371;28;20539;-73
2023/03/13 01:11:38;;;;;;;8.23;6.10;;;;;;;3.53;68.76;95128.31;5054971;28;20843;-73
2023/03/13 01:14:08;;;;;;;10.27;7.43;;;;;;;3.52;68.25;95119.72;5054748;28;20497;-73
2023/03/13 01:16:37;;;;;;;7.47;6.77;;;;;;;3.53;68.74;95120.53;5052450;28;20449;-71
2023/03/13 01:19:06;;;;;;;7.90;5.73;;;;;;;3.56;68.24;95123.81;5054726;28;20905;-73
2023/03/13 01:21:33;;;;;;;9.60;5.77;;;;;;;3.56;68.25;95122.97;5054624;28;20441;-74
2023/03/13 01:24:00;;;;;;;8.23;5.97;;;;;;;3.61;68.56;95115.78;5054412;28;20448;-73
2023/03/13 01:26:27;;;;;;;12.30;6.00;;;;;;;3.61;68.04;95119.19;5054207;28;20445;-73
2023/03/13 01:28:54;;;;;;;6.30;5.17;;;;;;;3.55;68.11;95123.88;5054313;28;21033;-73
2023/03/13 01:31:22;;;;;;;5.80;5.30;;;;;;;3.56;68.73;95117.78;5054623;28;20437;-72
2023/03/13 01:33:53;;;;;;;6.73;5.50;;;;;;;3.58;68.09;95127.16;5054515;28;21006;-73
2023/03/13 01:36:20;;;;;;;8.40;5.90;;;;;;;3.56;68.09;95121.22;5054564;28;20441;-73
2023/03/13 01:38:48;;;;;;;9.67;6.20;;;;;;;3.49;68.28;95129.41;5054138;28;20804;-74
2023/03/13 01:41:15;;;;;;;8.33;6.40;;;;;;;3.39;68.25;95127.28;5054156;28;20449;-73
2023/03/13 01:43:44;;;;;;;7.03;6.10;;;;;;;3.35;68.41;95123.19;5054084;28;20924;-73
2023/03/13 01:46:15;;;;;;;5.70;5.10;;;;;;;3.33;68.68;95135.41;5054196;28;20449;-72
2023/03/13 01:48:47;;;;;;;7.13;5.70;;;;;;;3.31;68.20;95134.63;5054721;28;20449;-74
2023/03/13 01:51:21;;;;;;;9.43;5.17;;;;;;;3.28;68.82;95141.75;5054051;28;20932;-72
2023/03/13 01:53:51;;;;;;;9.17;5.60;;;;;;;3.26;69.50;95139.22;5053854;28;20528;-73
2023/03/13 01:56:22;;;;;;;7.17;5.70;;;;;;;3.26;69.78;95144.44;5054098;28;20440;-73
2023/03/13 01:58:52;;;;;;;7.10;5.67;;;;;;;3.26;69.11;95146.19;5054181;28;20457;-73
2023/03/13 02:01:20;;;;;;;6.60;5.30;;;;;;;3.27;70.04;95153.03;5054063;28;20460;-73
2023/03/13 02:03:49;;;;;;;9.90;5.93;;;;;;;3.23;69.78;95147.19;5053710;28;20442;-73
2023/03/13 02:06:17;;;;;;;7.13;5.90;;;;;;;3.18;70.29;95141.41;5054119;28;20536;-72
2023/03/13 02:08:50;;;;;;;9.10;5.60;;;;;;;3.18;69.67;95135.34;5053877;28;20449;-73
2023/03/13 02:11:26;;;;;;;13.90;5.20;;;;;;;3.10;69.60;95146.97;5053764;28;20439;-72
2023/03/13 02:13:53;;;;;;;5.57;5.00;;;;;;;3.13;69.66;95148.56;5054106;28;20453;-73
2023/03/13 02:16:21;;;;;;;9.27;4.90;;;;;;;3.10;69.34;95152.16;5054055;28;20441;-72
2023/03/13 02:18:49;;;;;;;5.97;5.43;;;;;;;3.10;69.48;95140.94;5053720;28;20452;-72
2023/03/13 02:21:30;;;;;;;6.97;5.07;;;;;;;3.10;69.85;95146.97;5018102;28;20776;-73
2023/03/13 02:24:03;;;;;;;5.80;5.30;;;;;;;3.13;69.53;95151.16;5053540;28;20456;-70
2023/03/13 02:26:31;;;;;;;6.13;5.30;;;;;;;3.19;69.35;95158.63;5053296;28;20452;-73
2023/03/13 02:28:58;;;;;;;7.77;5.10;;;;;;;3.25;68.42;95154.88;5053472;28;20442;-73
2023/03/13 02:31:26;;;;;;;6.20;5.53;;;;;;;3.27;68.05;95159.06;5053549;28;20445;-73
2023/03/13 02:33:54;;;;;;;10.80;5.43;;;;;;;3.30;68.49;95165.84;5053358;28;20469;-73
2023/03/13 02:36:22;;;;;;;8.50;5.07;;;;;;;3.31;67.75;95170.09;5053401;28;20921;-73
2023/03/13 02:38:55;;;;;;;8.30;5.87;;;;;;;3.32;68.15;95174.38;5052495;28;20490;-72
2023/03/13 02:41:24;;;;;;;5.80;4.90;;;;;;;3.30;68.38;95178.81;5053264;28;20442;-72
2023/03/13 02:43:52;;;;;;;5.37;4.47;;;;;;;3.23;68.98;95177.47;5053117;28;20437;-73
2023/03/13 02:46:20;;;;;;;6.30;4.00;;;;;;;3.17;68.99;95178.59;5053272;28;20446;-74
2023/03/13 02:48:49;;;;;;;6.73;5.07;;;;;;;3.19;69.26;95186.31;5052817;28;20441;-73
2023/03/13 02:51:22;;;;;;;6.00;5.50;;;;;;;3.19;69.45;95189.75;5052966;28;20536;-73
2023/03/13 02:53:51;;;;;;;6.13;5.40;;;;;;;3.17;69.89;95198.50;5052838;28;20441;-70
2023/03/13 02:56:20;;;;;;;6.77;6.00;;;;;;;3.10;69.02;95206.59;5052993;28;20445;-72
2023/03/13 02:58:47;;;;;;;6.50;5.90;;;;;;;3.06;69.01;95207.66;5034404;28;20453;-72
2023/03/13 03:01:15;;;;;;;8.20;5.50;;;;;;;3.02;69.14;95206.13;5034264;28;20484;-74
2023/03/13 03:03:41;;;;;;;6.00;5.40;;;;;;;2.95;68.88;95201.34;5052896;28;20433;-74
2023/03/13 03:06:08;;;;;;;7.00;5.07;;;;;;;2.98;69.24;95208.97;5052755;28;20453;-73
2023/03/13 03:08:35;;;;;;;6.00;5.40;;;;;;;2.96;69.22;95203.03;5052611;28;20861;-74
2023/03/13 03:11:02;;;;;;;7.63;5.90;;;;;;;2.94;69.38;95203.09;5052938;28;20860;-73
2023/03/13 03:13:29;;;;;;;10.53;7.07;;;;;;;2.85;70.14;95208.72;5052918;28;20444;-74
2023/03/13 03:15:56;;;;;;;11.57;6.90;;;;;;;2.77;70.13;95208.28;5017429;28;21023;-74
2023/03/13 03:18:24;;;;;;;8.63;7.40;;;;;;;2.73;70.72;95207.59;5052349;28;20445;-73
2023/03/13 03:20:51;;;;;;;9.47;8.47;;;;;;;2.71;70.95;95203.41;5052430;28;20488;-73
2023/03/13 03:23:17;;;;;;;14.37;9.67;;;;;;;2.68;71.38;95212.16;5052574;28;20807;-74
2023/03/13 03:25:44;;;;;;;15.00;8.50;;;;;;;2.71;71.64;95227.56;5033613;28;20571;-73
2023/03/13 03:28:11;;;;;;;12.83;9.90;;;;;;;2.75;71.24;95228.25;5052414;28;20502;-70
2023/03/13 03:30:38;;;;;;;15.33;11.37;;;;;;;2.78;71.44;95228.09;5052424;28;20706;-72
2023/03/13 03:33:04;;;;;;;11.77;9.90;;;;;;;2.79;70.78;95234.94;5052499;28;20459;-74
2023/03/13 03:35:37;;;;;;;15.67;10.40;;;;;;;2.82;70.17;95245.16;5052089;28;20476;-73
2023/03/13 03:38:04;;;;;;;21.50;10.83;;;;;;;2.82;70.74;95239.97;5052267;28;20928;-73
2023/03/13 03:40:30;;;;;;;10.80;8.47;;;;;;;2.80;70.55;95247.00;5051935;28;20488;-73
2023/03/13 03:42:57;;;;;;;8.43;6.67;;;;;;;2.80;70.85;95253.00;5052306;28;20503;-74
2023/03/13 03:45:24;;;;;;;9.30;6.87;;;;;;;2.71;70.88;95252.63;5017239;28;20442;-71
2023/03/13 03:47:51;;;;;;;10.60;6.33;;;;;;;2.70;71.62;95246.59;5052256;28;20530;-73
2023/03/13 03:50:18;;;;;;;7.63;5.93;;;;;;;2.69;71.48;95262.22;5052072;28;20449;-72
2023/03/13 03:52:46;;;;;;;7.37;5.77;;;;;;;2.68;70.87;95265.72;5051474;28;20456;-73
2023/03/13 03:55:13;;;;;;;7.20;5.37;;;;;;;2.68;71.12;95273.50;5052562;28;20441;-73
2023/03/13 03:57:39;;;;;;;5.73;5.13;;;;;;;2.72;71.06;95275.03;5052112;28;20448;-73
2023/03/13 04:00:09;;;;;;;7.47;5.37;;;;;;;2.74;70.41;95273.22;5051864;28;20897;-73
2023/03/13 04:02:36;;;;;;;8.37;5.80;;;;;;;2.71;70.17;95286.31;5051838;28;20453;-74
2023/03/13 04:05:03;;;;;;;13.53;6.07;;;;;;;2.66;69.94;95283.09;5051813;28;20536;-73
2023/03/13 04:07:30;;;;;;;6.53;5.63;;;;;;;2.66;69.84;95285.69;5051988;28;20453;-73
2023/03/13 04:09:58;;;;;;;11.47;7.10;;;;;;;2.70;69.81;95295.00;5052099;28;20449;-73
2023/03/13 04:12:25;;;;;;;8.87;5.73;;;;;;;2.70;69.56;95289.81;5016671;28;20449;-72
2023/03/13 04:14:52;;;;;;;6.67;5.93;;;;;;;2.65;69.86;95289.19;5051803;28;20441;-73
2023/03/13 04:17:19;;;;;;;5.90;5.30;;;;;;;2.64;69.92;95300.47;5051550;28;21125;-73
2023/03/13 04:19:45;;;;;;;7.13;4.70;;;;;;;2.57;69.68;95302.50;5049879;28;20546;-74
2023/03/13 04:22:12;;;;;;;6.97;5.57;;;;;;;2.51;69.84;95309.72;5051281;28;20442;-72
2023/03/13 04:24:39;;;;;;;9.73;6.27;;;;;;;2.44;70.11;95304.81;5051654;28;20494;-73
2023/03/13 04:27:07;;;;;;;7.60;5.00;;;;;;;2.46;70.53;95304.75;5029095;28;20496;-73
2023/03/13 04:29:34;;;;;;;7.57;6.53;;;;;;;2.37;71.26;95313.78;5042575;28;20519;-73
2023/03/13 04:32:02;;;;;;;8.90;5.80;;;;;;;2.34;71.01;95319.13;5051552;28;20987;-73
2023/03/13 04:34:28;;;;;;;8.57;5.70;;;;;;;2.29;71.12;95322.81;5051448;28;20464;-72
2023/03/13 04:36:55;;;;;;;9.07;5.40;;;;;;;2.32;71.38;95317.50;5051717;28;20453;-73
2023/03/13 04:39:24;;;;;;;6.00;5.40;;;;;;;2.31;71.11;95329.59;5051761;28;20437;-73
2023/03/13 04:41:51;;;;;;;10.40;5.73;;;;;;;2.27;71.35;95333.22;5051340;28;20488;-74
2023/03/13 04:44:19;;;;;;;8.10;5.45;;;;;;;2.24;71.34;95341.13;5051520;28;20502;-73
2023/03/13 04:46:46;;;;;;;5.32;4.63;;;;;;;2.27;71.30;95346.19;5051207;28;20202;-73
2023/03/13 04:49:13;;;;;;;7.38;5.10;;;;;;;2.31;70.64;95352.88;5015384;28;20248;-74
2023/03/13 04:51:40;;;;;;;10.52;5.95;;;;;;;2.34;70.87;95350.19;5050524;28;20294;-73
2023/03/13 04:54:07;;;;;;;12.10;6.37;;;;;;;2.40;70.96;95360.25;5032146;28;20208;-73
2023/03/13 04:56:34;;;;;;;12.63;5.90;;;;;;;2.41;70.41;95359.34;5050689;28;20456;-73
2023/03/13 04:59:01;;;;;;;11.33;5.47;;;;;;;2.40;70.08;95359.44;5050857;28;20522;-73
2023/03/13 05:01:29;;;;;;;9.63;5.87;;;;;;;2.39;70.28;95357.75;5051505;28;20481;-72
2023/03/13 05:03:56;;;;;;;12.73;5.60;;;;;;;2.41;70.11;95355.94;5054901;28;20494;-74
2023/03/13 05:06:23;;;;;;;7.60;5.57;;;;;;;2.40;70.82;95360.25;5055026;28;20456;-74
2023/03/13 05:08:50;;;;;;;12.23;6.10;;;;;;;2.35;71.14;95359.63;5055296;28;20455;-73
2023/03/13 05:11:17;;;;;;;7.78;6.00;;;;;;;2.36;71.05;95360.47;5055137;28;20522;-72
2023/03/13 05:13:43;;;;;;;11.10;7.27;;;;;;;2.39;70.69;95362.94;5054658;28;20658;-73
2023/03/13 05:16:10;;;;;;;8.73;6.87;;;;;;;2.44;70.94;95373.91;5054685;28;20951;-73
2023/03/13 05:18:39;;;;;;;9.93;6.40;;;;;;;2.47;70.91;95368.59;5055012;28;21030;-72
2023/03/13 05:21:06;;;;;;;15.97;7.50;;;;;;;2.57;70.25;95369.84;5035483;28;20575;-73
2023/03/13 05:23:33;;;;;;;15.13;8.13;;;;;;;2.57;70.36;95377.59;5054105;28;21005;-72
2023/03/13 05:26:00;;;;;;;12.75;7.80;;;;;;;2.56;70.44;95380.28;5054064;28;20202;-73
2023/03/13 05:28:27;;;;;;;6.50;5.50;;;;;;;2.57;70.57;95376.78;5054091;28;20588;-73
2023/03/13 05:30:54;;;;;;;7.20;6.03;;;;;;;2.88;70.56;95379.63;5053803;28;20857;-73
2023/03/13 05:33:20;;;;;;;7.83;5.80;;;;;;;3.51;69.51;95385.25;5054255;28;20453;-72
2023/03/13 05:35:49;;;;;;;11.13;7.20;;;;;;;4.39;65.58;95384.22;5054969;28;20859;-71
2023/03/13 05:38:15;;;;;;;9.93;6.03;;;;;;;5.26;62.63;95390.72;5054385;28;20499;-73
2023/03/13 05:40:42;;;;;;;8.30;7.00;;;;;;;6.04;59.19;95392.28;5054304;28;20496;-71
2023/03/13 05:43:09;;;;;;;12.27;6.77;;;;;;;6.69;57.95;95390.09;5054622;28;20457;-73
2023/03/13 05:45:36;;;;;;;9.07;6.80;;;;;;;7.43;54.95;95391.50;5054398;28;20854;-73
2023/03/13 05:48:02;;;;;;;9.40;6.90;;;;;;;8.09;53.09;95393.22;5053843;28;20513;-72
2023/03/13 05:50:29;;;;;;;8.93;6.57;;;;;;;8.65;51.08;95393.81;5054259;28;20438;-72
2023/03/13 05:52:57;;;;;;;11.33;7.07;;;;;;;8.98;48.90;95395.88;5053472;28;20448;-72
2023/03/13 05:55:24;;;;;;;45.83;16.40;;;;;;;9.20;48.58;95387.31;5053303;28;20449;-74
2023/03/13 05:57:51;;;;;;;23.07;10.00;;;;;;;9.57;47.79;95388.13;5018413;28;20463;-73
2023/03/13 06:00:19;;;;;;;8.33;7.00;;;;;;;9.87;46.73;95390.28;5053967;28;20488;-73
2023/03/13 06:02:45;;;;;;;7.63;6.60;;;;;;;10.13;45.45;95390.97;5051849;28;20536;-72
2023/03/13 06:05:12;;;;;;;8.80;5.87;;;;;;;10.26;45.10;95399.59;5053379;28;20445;-73
2023/03/13 06:07:39;;;;;;;8.60;6.73;;;;;;;10.38;44.91;95411.78;5039846;28;20593;-73
2023/03/13 06:10:08;;;;;;;8.17;7.17;;;;;;;10.50;45.22;95408.25;5045018;28;20850;-73
2023/03/13 06:12:35;;;;;;;14.10;9.53;;;;;;;10.34;44.45;95407.72;5052910;28;20446;-73
2023/03/13 06:15:02;;;;;;;9.63;8.30;;;;;;;10.37;44.90;95406.66;5018802;28;20924;-73
2023/03/13 06:17:29;;;;;;;9.73;8.63;;;;;;;10.37;45.11;95404.88;5053998;28;20445;-74
2023/03/13 06:19:55;;;;;;;8.77;7.97;;;;;;;10.58;45.16;95409.44;5053763;28;20450;-72
2023/03/13 06:22:22;;;;;;;9.90;8.20;;;;;;;10.70;43.81;95404.09;5053333;28;20487;-74
2023/03/13 06:24:49;;;;;;;14.00;7.33;;;;;;;10.82;44.21;95408.41;5053838;28;20453;-74
2023/03/13 06:27:17;;;;;;;11.37;8.77;;;;;;;10.90;43.24;95412.22;5053372;28;20449;-74
2023/03/13 06:29:44;;;;;;;8.27;7.47;;;;;;;10.84;42.88;95409.13;5052992;28;20936;-73
2023/03/13 06:32:11;;;;;;;16.03;10.17;;;;;;;9.72;44.23;95412.38;5053398;28;20456;-73
2023/03/13 06:34:37;;;;;;;28.67;12.23;;;;;;;9.46;46.83;95409.00;5053663;28;20481;-73
2023/03/13 06:37:04;;;;;;;13.50;11.90;;;;;;;9.48;46.63;95417.59;5053001;28;20442;-74
2023/03/13 06:39:31;;;;;;;19.23;11.50;;;;;;;9.96;45.31;95412.34;5053246;28;20452;-73
2023/03/13 06:41:58;;;;;;;14.97;11.07;;;;;;;9.94;45.12;95409.84;5053094;28;20577;-72
2023/03/13 06:44:26;;;;;;;14.37;11.20;;;;;;;10.35;45.13;95393.66;5053140;28;20454;-73
2023/03/13 06:46:53;;;;;;;23.03;11.67;;;;;;;10.19;44.93;95393.13;5053520;28;20532;-73
2023/03/13 06:49:20;;;;;;;15.97;10.23;;;;;;;10.17;44.71;95387.16;5053153;28;20453;-73
2023/03/13 06:51:47;;;;;;;10.57;8.97;;;;;;;10.35;43.49;95383.16;5052895;28;20464;-73
2023/03/13 06:54:13;;;;;;;11.53;9.70;;;;;;;10.21;43.18;95383.38;5052714;28;20494;-73
2023/03/13 06:56:40;;;;;;;11.00;8.90;;;;;;;10.13;44.25;95383.09;5052531;28;20506;-72
2023/03/13 06:59:07;;;;;;;10.60;8.20;;;;;;;10.22;44.62;95387.69;5052200;28;20448;-73
2023/03/13 07:01:35;;;;;;;16.00;8.30;;;;;;;10.20;42.68;95386.94;5052166;28;20480;-73
2023/03/13 07:04:02;;;;;;;12.40;9.83;;;;;;;9.86;43.50;95386.84;5016849;28;20501;-73
2023/03/13 07:06:29;;;;;;;11.17;9.93;;;;;;;9.54;44.27;95380.47;5052078;28;20731;-73
2023/03/13 07:08:55;;;;;;;12.90;8.93;;;;;;;9.20;44.89;95385.53;5051919;28;20444;-73
2023/03/13 07:11:22;;;;;;;18.30;9.93;;;;;;;9.50;45.86;95373.78;5033590;28;20452;-72
2023/03/13 07:13:49;;;;;;;16.50;10.30;;;;;;;9.79;45.24;95377.72;5052204;28;20509;-73
2023/03/13 07:16:16;;;;;;;14.33;10.87;;;;;;;9.67;44.75;95381.25;5052439;28;20456;-72
2023/03/13 07:18:44;;;;;;;17.47;12.17;;;;;;;9.61;44.68;95385.19;5053062;28;20949;-72
2023/03/13 07:21:12;;;;;;;19.10;12.20;;;;;;;9.32;45.92;95376.81;5052682;28;20487;-73
2023/03/13 07:23:39;;;;;;;16.80;12.00;;;;;;;9.03;45.81;95392.94;5052407;28;20458;-73
2023/03/13 07:26:07;;;;;;;12.90;11.20;;;;;;;8.94;46.77;95381.31;5052493;28;20452;-73
2023/03/13 07:28:34;;;;;;;11.30;10.10;;;;;;;9.12;46.48;95376.56;5052489;28;20451;-72
2023/03/13 07:31:05;;;;;;;13.57;10.43;;;;;;;9.27;46.18;95376.31;5052236;28;20496;-72
2023/03/13 07:33:32;;;;;;;11.07;9.37;;;;;;;9.22;45.64;95386.25;5052268;28;20458;-72
2023/03/13 07:36:01;;;;;;;13.90;10.40;;;;;;;8.95;45.83;95378.56;5052310;28;20450;-72
2023/03/13 07:38:28;;;;;;;17.30;11.60;;;;;;;9.28;46.90;95377.97;5017122;28;20455;-72
2023/03/13 07:40:57;;;;;;;17.90;11.13;;;;;;;9.47;46.05;95376.63;5051939;28;20491;-72
2023/03/13 07:43:25;;;;;;;20.73;11.57;;;;;;;9.07;46.94;95387.34;5052017;28;20466;-73
2023/03/13 07:45:54;;;;;;;14.63;11.50;;;;;;;8.98;47.21;95374.94;5051997;28;20444;-73
2023/03/13 07:48:21;;;;;;;16.33;11.27;;;;;;;9.12;47.57;95377.41;5052210;28;20443;-71
2023/03/13 07:50:48;;;;;;;26.73;12.57;;;;;;;9.36;48.92;95384.44;5052088;28;20472;-73
2023/03/13 07:53:19;;;;;;;15.17;11.83;;;;;;;9.24;48.89;95380.91;5052062;28;20436;-72
2023/03/13 07:55:57;;;;;;;19.10;12.07;;;;;;;9.04;48.65;95379.72;5052229;28;20474;-73
2023/03/13 07:58:25;;;;;;;13.97;12.30;;;;;;;8.85;49.64;95384.56;5052122;28;20505;-73
2023/03/13 08:00:52;;;;;;;12.20;10.90;;;;;;;8.62;50.13;95388.78;5052163;28;20486;-73
2023/03/13 08:03:19;;;;;;;14.17;12.13;;;;;;;8.66;50.40;95383.22;5051949;28;20451;-72
2023/03/13 08:05:47;;;;;;;19.07;12.20;;;;;;;8.85;50.38;95374.09;5051918;28;20443;-73
2023/03/13 08:08:13;;;;;;;12.40;11.20;;;;;;;8.88;50.72;95368.66;5051878;28;20453;-73
2023/03/13 08:10:42;;;;;;;13.87;12.20;;;;;;;8.51;51.77;95370.38;5051744;28;20455;-72
2023/03/13 08:13:08;;;;;;;13.70;12.30;;;;;;;8.91;51.50;95365.81;5016438;28;20509;-72
2023/03/13 08:15:35;;;;;;;15.53;12.73;;;;;;;9.16;50.05;95355.28;5052232;28;20447;-72
2023/03/13 08:18:02;;;;;;;15.60;12.77;;;;;;;9.41;49.51;95354.34;5052031;28;20447;-72
2023/03/13 08:20:28;;;;;;;13.80;10.23;;;;;;;9.07;49.98;95358.56;5051538;28;20452;-73
2023/03/13 08:22:57;;;;;;;17.07;11.37;;;;;;;9.00;51.12;95352.09;5051792;28;20498;-73
2023/03/13 08:25:23;;;;;;;23.77;11.30;;;;;;;8.94;50.85;95355.13;5051766;28;20491;-71
2023/03/13 08:27:52;;;;;;;13.00;10.37;;;;;;;8.66;50.98;95359.69;5051780;28;20439;-72
2023/03/13 08:30:19;;;;;;;14.90;11.80;;;;;;;8.51;50.72;95355.53;5051703;28;21016;-73
2023/03/13 08:32:45;;;;;;;15.70;10.03;;;;;;;8.53;50.25;95361.50;5016689;28;20460;-74
2023/03/13 08:35:12;;;;;;;14.47;11.47;;;;;;;8.53;52.20;95353.66;5016145;28;20574;-73
2023/03/13 08:37:39;;;;;;;15.90;11.07;;;;;;;8.43;51.62;95362.25;5036016;28;20435;-73
2023/03/13 08:40:10;;;;;;;14.63;11.57;;;;;;;8.49;52.54;95364.44;5055447;28;20454;-72
2023/03/13 08:42:39;;;;;;;16.40;11.77;;;;;;;8.65;52.30;95371.09;5021108;28;20999;-70
2023/03/13 08:45:08;;;;;;;22.43;12.53;;;;;;;8.65;50.98;95371.09;5055603;28;20474;-73
2023/03/13 08:47:35;;;;;;;15.17;12.37;;;;;;;8.95;50.60;95369.88;5055925;28;20505;-73
2023/03/13 08:50:02;;;;;;;19.43;13.50;;;;;;;8.91;51.74;95377.13;5055655;28;20571;-73
2023/03/13 08:52:29;;;;;;;19.13;12.60;;;;;;;8.89;50.56;95376.41;5055232;28;20440;-73
2023/03/13 08:54:55;;;;;;;16.23;12.30;;;;;;;9.04;49.82;95366.63;5055156;28;20504;-72
2023/03/13 08:57:23;;;;;;;17.60;13.00;;;;;;;9.12;50.09;95363.47;5055560;28;20448;-72
2023/03/13 08:59:50;;;;;;;17.07;12.80;;;;;;;9.16;49.13;95347.44;5055441;28;20862;-71
2023/03/13 09:02:19;;;;;;;21.10;11.90;;;;;;;9.13;49.99;95352.88;5054988;28;20537;-72
2023/03/13 09:04:48;;;;;;;20.97;11.07;;;;;;;9.16;50.22;95357.06;5054961;28;20474;-73
2023/03/13 09:07:15;;;;;;;18.13;13.47;;;;;;;9.28;50.58;95358.81;5054793;28;20531;-73
2023/03/13 09:09:42;;;;;;;16.57;12.40;;;;;;;9.41;49.13;95356.13;5055396;28;20454;-73
2023/03/13 09:12:10;;;;;;;15.93;12.40;;;;;;;9.53;50.25;95353.44;5054944;28;20442;-72
2023/03/13 09:14:37;;;;;;;14.70;11.03;;;;;;;9.69;48.87;95340.06;5054754;28;20448;-73
2023/03/13 09:17:04;;;;;;;15.20;11.03;;;;;;;9.84;48.01;95343.34;5054870;28;20441;-72
2023/03/13 09:19:32;;;;;;;14.60;12.33;;;;;;;9.49;49.49;95338.91;5054871;28;20903;-71
2023/03/13 09:21:59;;;;;;;15.13;11.90;;;;;;;9.39;48.36;95343.16;5054935;28;20496;-71
2023/03/13 09:24:26;;;;;;;20.60;12.70;;;;;;;9.47;48.87;95337.34;5054894;28;20442;-73
2023/03/13 09:26:52;;;;;;;19.27;13.30;;;;;;;9.67;49.21;95331.47;5054692;28;20563;-72
2023/03/13 09:29:19;;;;;;;14.43;11.63;;;;;;;9.79;49.18;95335.78;5019406;28;20448;-73
2023/03/13 09:31:46;;;;;;;20.10;13.97;;;;;;;10.02;49.28;95335.88;5054628;28;20441;-72
2023/03/13 09:34:13;;;;;;;14.93;11.73;;;;;;;9.99;47.13;95336.94;5054377;28;20987;-73
2023/03/13 09:36:41;;;;;;;17.40;11.80;;;;;;;9.88;47.90;95327.25;5054730;28;20449;-73
2023/03/13 09:39:08;;;;;;;22.10;12.70;;;;;;;10.01;48.12;95339.44;5054284;28;20473;-73
2023/03/13 09:41:39;;;;;;;16.63;11.80;;;;;;;10.02;47.08;95344.56;5054152;28;20488;-72
2023/03/13 09:44:13;;;;;;;18.53;14.23;;;;;;;9.82;47.88;95346.03;5054159;28;20453;-72
2023/03/13 09:46:45;;;;;;;15.97;11.77;;;;;;;9.83;48.32;95344.25;5054242;28;20452;-73
2023/03/13 09:49:20;;;;;;;20.97;11.80;;;;;;;9.97;47.36;95332.75;5054298;28;20446;-73
2023/03/13 09:51:53;;;;;;;14.37;11.57;;;;;;;10.06;48.25;95345.16;5035394;28;20501;-73
2023/03/13 09:54:25;;;;;;;13.10;11.27;;;;;;;10.04;47.71;95350.53;5053965;28;20512;-73
2023/03/13 09:56:56;;;;;;;21.53;12.63;;;;;;;10.02;47.43;95341.09;5054042;28;20459;-72
2023/03/13 09:59:29;;;;;;;19.30;11.20;;;;;;;9.96;48.37;95337.16;5053790;28;20457;-73
2023/03/13 10:01:59;;;;;;;19.93;11.77;;;;;;;9.97;46.77;95340.63;5054093;28;20856;-71
2023/03/13 10:04:34;;;;;;;13.03;11.03;;;;;;;10.09;47.57;95340.53;5054275;28;20479;-73
2023/03/13 10:07:03;;;;;;;16.43;11.50;;;;;;;9.74;47.23;95337.09;5019981;28;20468;-73
2023/03/13 10:09:31;;;;;;;17.27;12.40;;;;;;;9.82;47.78;95330.31;5053831;28;20468;-71
2023/03/13 10:12:06;;;;;;;13.23;10.80;;;;;;;10.06;48.98;95318.94;5053947;28;20452;-72
2023/03/13 10:14:43;;;;;;;16.57;11.93;;;;;;;10.01;48.04;95319.31;5018213;28;20441;-73
2023/03/13 10:17:18;;;;;;;16.53;13.07;;;;;;;10.06;47.33;95313.69;5053998;28;20448;-73
2023/03/13 10:19:51;;;;;;;15.37;11.30;;;;;;;9.91;47.56;95311.31;5053546;28;20455;-73
2023/03/13 10:22:24;;;;;;;15.57;12.00;;;;;;;9.98;46.95;95303.81;5053913;28;20490;-73
2023/03/13 10:24:55;;;;;;;22.33;12.30;;;;;;;9.88;46.78;95302.84;5053702;28;21016;-74
2023/03/13 10:27:22;;;;;;;18.60;12.40;;;;;;;9.96;47.23;95304.88;5053438;28;20449;-73
2023/03/13 10:29:48;;;;;;;13.33;11.37;;;;;;;10.03;48.27;95285.09;5053524;28;20507;-73
2023/03/13 10:32:17;;;;;;;18.70;13.10;;;;;;;9.62;47.58;95281.22;5053328;28;20460;-72
2023/03/13 10:34:53;;;;;;;14.30;10.90;;;;;;;9.76;47.95;95281.00;5053090;28;20484;-73
2023/03/13 10:37:24;;;;;;;16.00;11.53;;;;;;;9.86;47.71;95278.53;5053276;28;20452;-73
2023/03/13 10:39:51;;;;;;;16.63;11.50;;;;;;;9.75;48.67;95271.47;5053165;28;20479;-73
2023/03/13 10:42:23;;;;;;;16.43;11.10;;;;;;;9.91;48.79;95268.53;5053050;28;20538;-72
2023/03/13 10:44:57;;;;;;;12.50;11.07;;;;;;;9.94;48.67;95266.50;5053049;28;20541;-73
2023/03/13 10:47:24;;;;;;;16.80;10.87;;;;;;;10.07;49.66;95265.56;5053207;28;20504;-73
2023/03/13 10:49:56;;;;;;;15.93;11.73;;;;;;;10.06;49.83;95256.03;5034123;28;20428;-72
2023/03/13 10:52:32;;;;;;;16.80;11.53;;;;;;;10.11;49.88;95240.75;5053054;28;20449;-73
2023/03/13 10:55:04;;;;;;;23.20;11.80;;;;;;;9.77;49.78;95243.34;5052733;28;20433;-72
2023/03/13 10:57:32;;;;;;;13.40;11.40;;;;;;;9.54;50.55;95239.88;5053166;28;20448;-72
2023/03/13 11:00:05;;;;;;;14.17;11.00;;;;;;;9.60;49.94;95238.56;5052218;28;20446;-73
2023/03/13 11:02:34;;;;;;;17.00;10.50;;;;;;;9.68;50.09;95244.06;5053002;28;20488;-72
2023/03/13 11:05:01;;;;;;;12.20;10.27;;;;;;;9.76;50.37;95236.44;5052735;28;20449;-71
2023/03/13 11:07:33;;;;;;;15.20;10.67;;;;;;;9.88;50.27;95232.06;5052838;28;20767;-73
2023/03/13 11:10:02;;;;;;;11.30;9.53;;;;;;;9.99;49.95;95223.38;5052464;28;20445;-73
2023/03/13 11:12:33;;;;;;;13.80;11.27;;;;;;;10.15;48.60;95224.69;5052804;28;20437;-72
2023/03/13 11:15:01;;;;;;;16.90;11.30;;;;;;;10.22;48.84;95217.22;5052704;28;20528;-73
2023/03/13 11:17:37;;;;;;;14.23;10.73;;;;;;;10.27;48.88;95216.84;5052346;28;20870;-73
2023/03/13 11:20:22;;;;;;;14.37;10.53;;;;;;;10.16;48.37;95210.63;5052524;28;20441;-72
2023/03/13 11:23:15;;;;;;;15.90;11.40;;;;;;;10.24;49.71;95212.69;5052579;28;20567;-73
2023/03/13 11:25:50;;;;;;;16.87;10.40;;;;;;;10.35;48.53;95210.03;5052443;28;20445;-74
2023/03/13 11:28:28;;;;;;;16.87;11.10;;;;;;;10.32;48.56;95202.41;5052664;28;20514;-70
2023/03/13 11:31:07;;;;;;;18.33;11.20;;;;;;;10.42;48.43;95187.63;5052131;28;20449;-72
2023/03/13 11:33:44;;;;;;;19.77;12.23;;;;;;;10.53;49.34;95192.00;5052498;28;20453;-73
2023/03/13 11:36:18;;;;;;;23.10;11.27;;;;;;;10.37;47.53;95189.75;5051381;28;20437;-73